sensor_id;sensor_type;location;lat;lon;timestamp;temperature;humidity
26262;DHT22;13988;52.446;13.280;2023-10-13T00:00:28;13.60;99.90
26262;DHT22;13988;52.446;13.280;2023-10-13T00:03:06;13.60;99.90
26262;DHT22;13988;52.446;13.280;2023-10-13T00:05:32;13.50;99.90
26262;DHT22;13988;52.446;13.280;2023-10-13T00:08:02;13.50;99.90
26262;DHT22;13988;52.446;13.280;2023-10-13T00:10:32;13.50;99.90
26262;DHT22;13988;52.446;13.280;2023-10-13T00:12:59;13.40;99.90
26262;DHT22;13988;52.446;13.280;2023-10-13T00:15:51;13.40;99.90
26262;DHT22;13988;52.446;13.280;2023-10-13T00:18:27;13.50;99.90
26262;DHT22;13988;52.446;13.280;2023-10-13T00:20:53;13.60;99.90
26262;DHT22;13988;52.446;13.280;2023-10-13T00:23:22;13.60;99.90
26262;DHT22;13988;52.446;13.280;2023-10-13T00:25:49;13.60;99.90
26262;DHT22;13988;52.446;13.280;2023-10-13T00:28:28;13.60;99.90
26262;DHT22;13988;52.446;13.280;2023-10-13T00:31:01;13.60;99.90
26262;DHT22;13988;52.446;13.280;2023-10-13T00:33:38;13.60;99.90
26262;DHT22;13988;52.446;13.280;2023-10-13T00:36:07;13.60;99.90
26262;DHT22;13988;52.446;13.280;2023-10-13T00:38:33;13.60;99.90
26262;DHT22;13988;52.446;13.280;2023-10-13T00:41:00;13.50;99.90
26262;DHT22;13988;52.446;13.280;2023-10-13T00:43:46;13.50;99.90
26262;DHT22;13988;52.446;13.280;2023-10-13T00:46:30;13.50;99.90
26262;DHT22;13988;52.446;13.280;2023-10-13T00:48:59;13.50;99.90
26262;DHT22;13988;52.446;13.280;2023-10-13T00:51:25;13.50;99.90
26262;DHT22;13988;52.446;13.280;2023-10-13T00:54:08;13.50;99.90
26262;DHT22;13988;52.446;13.280;2023-10-13T00:56:41;13.50;99.90
26262;DHT22;13988;52.446;13.280;2023-10-13T00:59:15;13.50;99.90
26262;DHT22;13988;52.446;13.280;2023-10-13T01:01:41;13.50;99.90
26262;DHT22;13988;52.446;13.280;2023-10-13T01:04:10;13.50;99.90
26262;DHT22;13988;52.446;13.280;2023-10-13T01:06:40;13.50;99.90
26262;DHT22;13988;52.446;13.280;2023-10-13T01:09:08;13.50;99.90
26262;DHT22;13988;52.446;13.280;2023-10-13T01:14:13;13.60;99.90
26262;DHT22;13988;52.446;13.280;2023-10-13T01:16:40;13.60;99.90
26262;DHT22;13988;52.446;13.280;2023-10-13T01:19:10;13.60;99.90
26262;DHT22;13988;52.446;13.280;2023-10-13T01:21:40;13.60;99.90
26262;DHT22;13988;52.446;13.280;2023-10-13T01:24:07;13.60;99.90
26262;DHT22;13988;52.446;13.280;2023-10-13T01:26:34;13.60;99.90
26262;DHT22;13988;52.446;13.280;2023-10-13T01:29:04;13.70;99.90
26262;DHT22;13988;52.446;13.280;2023-10-13T01:31:38;13.60;99.90
26262;DHT22;13988;52.446;13.280;2023-10-13T01:34:03;13.70;99.90
26262;DHT22;13988;52.446;13.280;2023-10-13T01:36:29;13.70;99.90
26262;DHT22;13988;52.446;13.280;2023-10-13T01:39:01;13.60;99.90
26262;DHT22;13988;52.446;13.280;2023-10-13T01:41:27;13.60;99.90
26262;DHT22;13988;52.446;13.280;2023-10-13T01:43:52;13.60;99.90
26262;DHT22;13988;52.446;13.280;2023-10-13T01:46:18;13.60;99.90
26262;DHT22;13988;52.446;13.280;2023-10-13T01:48:44;13.60;99.90
26262;DHT22;13988;52.446;13.280;2023-10-13T01:51:11;13.60;99.90
26262;DHT22;13988;52.446;13.280;2023-10-13T01:53:37;13.60;99.90
26262;DHT22;13988;52.446;13.280;2023-10-13T01:56:07;13.60;99.90
26262;DHT22;13988;52.446;13.280;2023-10-13T01:58:40;13.60;99.90
26262;DHT22;13988;52.446;13.280;2023-10-13T02:01:09;13.60;99.90
26262;DHT22;13988;52.446;13.280;2023-10-13T02:03:36;13.60;99.90
26262;DHT22;13988;52.446;13.280;2023-10-13T02:06:08;13.60;99.90
26262;DHT22;13988;52.446;13.280;2023-10-13T02:08:36;13.60;99.90
26262;DHT22;13988;52.446;13.280;2023-10-13T02:11:05;13.60;99.90
26262;DHT22;13988;52.446;13.280;2023-10-13T02:13:32;13.60;99.90
26262;DHT22;13988;52.446;13.280;2023-10-13T02:15:58;13.60;99.90
26262;DHT22;13988;52.446;13.280;2023-10-13T02:18:29;13.60;99.90
26262;DHT22;13988;52.446;13.280;2023-10-13T02:21:08;13.60;99.90
26262;DHT22;13988;52.446;13.280;2023-10-13T02:23:40;13.60;99.90
26262;DHT22;13988;52.446;13.280;2023-10-13T02:26:25;13.70;99.90
26262;DHT22;13988;52.446;13.280;2023-10-13T02:29:01;13.70;99.90
26262;DHT22;13988;52.446;13.280;2023-10-13T02:31:35;13.70;99.90
26262;DHT22;13988;52.446;13.280;2023-10-13T02:34:01;13.70;99.90
26262;DHT22;13988;52.446;13.280;2023-10-13T02:36:32;13.70;99.90
26262;DHT22;13988;52.446;13.280;2023-10-13T02:39:12;13.70;99.90
26262;DHT22;13988;52.446;13.280;2023-10-13T02:41:39;13.70;99.90
26262;DHT22;13988;52.446;13.280;2023-10-13T02:44:07;13.70;99.90
26262;DHT22;13988;52.446;13.280;2023-10-13T02:46:36;13.80;99.90
26262;DHT22;13988;52.446;13.280;2023-10-13T02:49:05;13.70;99.90
26262;DHT22;13988;52.446;13.280;2023-10-13T02:51:39;13.70;99.90
26262;DHT22;13988;52.446;13.280;2023-10-13T02:54:08;13.70;99.90
26262;DHT22;13988;52.446;13.280;2023-10-13T02:56:38;13.80;99.90
26262;DHT22;13988;52.446;13.280;2023-10-13T02:59:12;13.80;99.90
26262;DHT22;13988;52.446;13.280;2023-10-13T03:01:38;13.80;99.90
26262;DHT22;13988;52.446;13.280;2023-10-13T03:04:04;13.80;99.90
26262;DHT22;13988;52.446;13.280;2023-10-13T03:06:34;13.80;99.90
26262;DHT22;13988;52.446;13.280;2023-10-13T03:09:06;13.70;99.90
26262;DHT22;13988;52.446;13.280;2023-10-13T03:11:47;13.80;99.90
26262;DHT22;13988;52.446;13.280;2023-10-13T03:14:20;13.70;99.90
26262;DHT22;13988;52.446;13.280;2023-10-13T03:16:54;13.70;99.90
26262;DHT22;13988;52.446;13.280;2023-10-13T03:19:20;13.80;99.90
26262;DHT22;13988;52.446;13.280;2023-10-13T03:21:47;13.80;99.90
26262;DHT22;13988;52.446;13.280;2023-10-13T03:24:23;13.70;99.90
26262;DHT22;13988;52.446;13.280;2023-10-13T03:26:59;13.70;99.90
26262;DHT22;13988;52.446;13.280;2023-10-13T03:29:35;13.80;99.90
26262;DHT22;13988;52.446;13.280;2023-10-13T03:32:01;13.80;99.90
26262;DHT22;13988;52.446;13.280;2023-10-13T03:34:39;13.80;99.90
26262;DHT22;13988;52.446;13.280;2023-10-13T03:37:17;13.80;99.90
26262;DHT22;13988;52.446;13.280;2023-10-13T03:39:45;13.80;99.90
26262;DHT22;13988;52.446;13.280;2023-10-13T03:42:11;13.80;99.90
26262;DHT22;13988;52.446;13.280;2023-10-13T03:44:47;13.80;99.90
26262;DHT22;13988;52.446;13.280;2023-10-13T03:47:13;13.80;99.90
26262;DHT22;13988;52.446;13.280;2023-10-13T03:49:55;13.80;99.90
26262;DHT22;13988;52.446;13.280;2023-10-13T03:52:41;13.80;99.90
26262;DHT22;13988;52.446;13.280;2023-10-13T03:55:07;13.80;99.90
26262;DHT22;13988;52.446;13.280;2023-10-13T03:57:33;13.90;99.90
26262;DHT22;13988;52.446;13.280;2023-10-13T03:59:59;13.80;99.90
26262;DHT22;13988;52.446;13.280;2023-10-13T04:02:33;13.80;99.90
26262;DHT22;13988;52.446;13.280;2023-10-13T04:04:59;13.80;99.90
26262;DHT22;13988;52.446;13.280;2023-10-13T04:07:33;13.80;99.90
26262;DHT22;13988;52.446;13.280;2023-10-13T04:10:07;13.80;99.90
26262;DHT22;13988;52.446;13.280;2023-10-13T04:13:05;13.80;99.90
26262;DHT22;13988;52.446;13.280;2023-10-13T04:15:45;13.80;99.90
26262;DHT22;13988;52.446;13.280;2023-10-13T04:18:30;13.80;99.90
26262;DHT22;13988;52.446;13.280;2023-10-13T04:21:14;13.80;99.90
26262;DHT22;13988;52.446;13.280;2023-10-13T04:23:58;13.80;99.90
26262;DHT22;13988;52.446;13.280;2023-10-13T04:26:43;13.80;99.90
26262;DHT22;13988;52.446;13.280;2023-10-13T04:29:27;13.90;99.90
26262;DHT22;13988;52.446;13.280;2023-10-13T04:32:11;13.90;99.90
26262;DHT22;13988;52.446;13.280;2023-10-13T04:34:40;13.90;99.90
26262;DHT22;13988;52.446;13.280;2023-10-13T04:37:11;13.80;99.90
26262;DHT22;13988;52.446;13.280;2023-10-13T04:39:58;13.90;99.90
26262;DHT22;13988;52.446;13.280;2023-10-13T04:42:36;13.80;99.90
26262;DHT22;13988;52.446;13.280;2023-10-13T04:45:07;13.80;99.90
26262;DHT22;13988;52.446;13.280;2023-10-13T04:47:53;13.80;99.90
26262;DHT22;13988;52.446;13.280;2023-10-13T04:50:23;13.90;99.90
26262;DHT22;13988;52.446;13.280;2023-10-13T04:52:59;13.80;99.90
26262;DHT22;13988;52.446;13.280;2023-10-13T04:55:38;13.80;99.90
26262;DHT22;13988;52.446;13.280;2023-10-13T04:58:22;13.90;99.90
26262;DHT22;13988;52.446;13.280;2023-10-13T05:01:01;13.90;99.90
26262;DHT22;13988;52.446;13.280;2023-10-13T05:03:45;13.90;99.90
26262;DHT22;13988;52.446;13.280;2023-10-13T05:06:46;13.90;99.90
26262;DHT22;13988;52.446;13.280;2023-10-13T05:09:13;13.90;99.90
26262;DHT22;13988;52.446;13.280;2023-10-13T05:11:57;14.00;99.90
26262;DHT22;13988;52.446;13.280;2023-10-13T05:14:41;14.00;99.90
26262;DHT22;13988;52.446;13.280;2023-10-13T05:17:26;14.00;99.90
26262;DHT22;13988;52.446;13.280;2023-10-13T05:20:10;14.00;99.90
26262;DHT22;13988;52.446;13.280;2023-10-13T05:22:54;14.00;99.90
26262;DHT22;13988;52.446;13.280;2023-10-13T05:25:38;14.00;99.90
26262;DHT22;13988;52.446;13.280;2023-10-13T05:28:23;14.00;99.90
26262;DHT22;13988;52.446;13.280;2023-10-13T05:31:08;14.00;99.90
26262;DHT22;13988;52.446;13.280;2023-10-13T05:33:52;14.10;99.90
26262;DHT22;13988;52.446;13.280;2023-10-13T05:36:37;14.00;99.90
26262;DHT22;13988;52.446;13.280;2023-10-13T05:39:22;14.00;99.90
26262;DHT22;13988;52.446;13.280;2023-10-13T05:42:07;14.10;99.90
26262;DHT22;13988;52.446;13.280;2023-10-13T05:44:51;14.10;99.90
26262;DHT22;13988;52.446;13.280;2023-10-13T05:47:35;14.10;99.90
26262;DHT22;13988;52.446;13.280;2023-10-13T05:50:04;14.10;99.90
26262;DHT22;13988;52.446;13.280;2023-10-13T05:52:38;14.10;99.90
26262;DHT22;13988;52.446;13.280;2023-10-13T05:55:30;14.10;99.90
26262;DHT22;13988;52.446;13.280;2023-10-13T05:58:15;14.20;99.90
26262;DHT22;13988;52.446;13.280;2023-10-13T06:01:00;14.20;99.90
26262;DHT22;13988;52.446;13.280;2023-10-13T06:03:44;14.20;99.90
26262;DHT22;13988;52.446;13.280;2023-10-13T06:06:29;14.20;99.90
26262;DHT22;13988;52.446;13.280;2023-10-13T06:09:13;14.20;99.90
26262;DHT22;13988;52.446;13.280;2023-10-13T06:11:58;14.20;99.90
26262;DHT22;13988;52.446;13.280;2023-10-13T06:14:46;14.20;99.90
26262;DHT22;13988;52.446;13.280;2023-10-13T06:17:30;14.30;99.90
26262;DHT22;13988;52.446;13.280;2023-10-13T06:20:14;14.30;99.90
26262;DHT22;13988;52.446;13.280;2023-10-13T06:22:58;14.40;99.90
26262;DHT22;13988;52.446;13.280;2023-10-13T06:25:42;14.50;99.90
26262;DHT22;13988;52.446;13.280;2023-10-13T06:28:26;14.50;99.90
26262;DHT22;13988;52.446;13.280;2023-10-13T06:31:08;14.50;99.90
26262;DHT22;13988;52.446;13.280;2023-10-13T06:33:39;14.50;99.90
26262;DHT22;13988;52.446;13.280;2023-10-13T06:36:10;14.50;99.90
26262;DHT22;13988;52.446;13.280;2023-10-13T06:38:36;14.50;99.90
26262;DHT22;13988;52.446;13.280;2023-10-13T06:41:03;14.50;99.90
26262;DHT22;13988;52.446;13.280;2023-10-13T06:43:34;14.50;99.90
26262;DHT22;13988;52.446;13.280;2023-10-13T06:46:12;14.60;99.90
26262;DHT22;13988;52.446;13.280;2023-10-13T06:48:40;14.70;99.90
26262;DHT22;13988;52.446;13.280;2023-10-13T06:51:07;14.70;99.90
26262;DHT22;13988;52.446;13.280;2023-10-13T06:53:48;14.80;99.90
26262;DHT22;13988;52.446;13.280;2023-10-13T06:56:17;14.90;99.90
26262;DHT22;13988;52.446;13.280;2023-10-13T06:58:56;15.00;99.90
26262;DHT22;13988;52.446;13.280;2023-10-13T07:01:26;15.10;99.90
26262;DHT22;13988;52.446;13.280;2023-10-13T07:03:52;15.20;99.90
26262;DHT22;13988;52.446;13.280;2023-10-13T07:06:29;15.30;99.90
26262;DHT22;13988;52.446;13.280;2023-10-13T07:08:57;15.40;99.90
26262;DHT22;13988;52.446;13.280;2023-10-13T07:11:26;15.40;99.90
26262;DHT22;13988;52.446;13.280;2023-10-13T07:14:02;15.50;99.90
26262;DHT22;13988;52.446;13.280;2023-10-13T07:17:01;15.50;99.90
26262;DHT22;13988;52.446;13.280;2023-10-13T07:19:28;15.50;99.90
26262;DHT22;13988;52.446;13.280;2023-10-13T07:21:58;15.60;99.90
26262;DHT22;13988;52.446;13.280;2023-10-13T07:24:28;15.70;99.90
26262;DHT22;13988;52.446;13.280;2023-10-13T07:26:58;15.60;99.90
26262;DHT22;13988;52.446;13.280;2023-10-13T07:29:31;15.70;99.90
26262;DHT22;13988;52.446;13.280;2023-10-13T07:32:03;15.80;99.90
26262;DHT22;13988;52.446;13.280;2023-10-13T07:34:29;15.90;99.90
26262;DHT22;13988;52.446;13.280;2023-10-13T07:36:58;15.90;99.90
26262;DHT22;13988;52.446;13.280;2023-10-13T07:39:33;16.00;99.90
26262;DHT22;13988;52.446;13.280;2023-10-13T07:42:04;16.00;99.90
26262;DHT22;13988;52.446;13.280;2023-10-13T07:44:34;16.00;99.90
26262;DHT22;13988;52.446;13.280;2023-10-13T07:47:01;16.00;99.90
26262;DHT22;13988;52.446;13.280;2023-10-13T07:49:31;16.10;99.90
26262;DHT22;13988;52.446;13.280;2023-10-13T07:52:01;16.10;99.90
26262;DHT22;13988;52.446;13.280;2023-10-13T07:54:42;16.10;99.90
26262;DHT22;13988;52.446;13.280;2023-10-13T07:57:08;16.20;99.90
26262;DHT22;13988;52.446;13.280;2023-10-13T07:59:33;16.20;99.90
26262;DHT22;13988;52.446;13.280;2023-10-13T08:02:13;16.20;99.90
26262;DHT22;13988;52.446;13.280;2023-10-13T08:04:40;16.20;99.90
26262;DHT22;13988;52.446;13.280;2023-10-13T08:07:06;16.20;99.90
26262;DHT22;13988;52.446;13.280;2023-10-13T08:09:40;16.20;99.90
26262;DHT22;13988;52.446;13.280;2023-10-13T08:12:07;16.20;99.90
26262;DHT22;13988;52.446;13.280;2023-10-13T08:14:36;16.20;99.90
26262;DHT22;13988;52.446;13.280;2023-10-13T08:17:05;16.30;99.90
26262;DHT22;13988;52.446;13.280;2023-10-13T08:19:37;16.30;99.90
26262;DHT22;13988;52.446;13.280;2023-10-13T08:22:11;16.40;99.90
26262;DHT22;13988;52.446;13.280;2023-10-13T08:24:43;16.50;99.90
26262;DHT22;13988;52.446;13.280;2023-10-13T08:27:08;16.60;99.90
26262;DHT22;13988;52.446;13.280;2023-10-13T08:29:44;16.70;99.90
26262;DHT22;13988;52.446;13.280;2023-10-13T08:32:19;16.70;99.90
26262;DHT22;13988;52.446;13.280;2023-10-13T08:34:58;16.70;99.90
26262;DHT22;13988;52.446;13.280;2023-10-13T08:37:23;16.80;99.90
26262;DHT22;13988;52.446;13.280;2023-10-13T08:39:50;16.70;99.90
26262;DHT22;13988;52.446;13.280;2023-10-13T08:42:33;16.70;99.90
26262;DHT22;13988;52.446;13.280;2023-10-13T08:50:47;16.70;99.90
26262;DHT22;13988;52.446;13.280;2023-10-13T08:53:15;16.70;99.90
26262;DHT22;13988;52.446;13.280;2023-10-13T08:58:35;16.80;99.90
26262;DHT22;13988;52.446;13.280;2023-10-13T09:01:25;16.80;99.90
26262;DHT22;13988;52.446;13.280;2023-10-13T09:04:15;16.90;99.90
26262;DHT22;13988;52.446;13.280;2023-10-13T09:06:45;16.90;99.90
26262;DHT22;13988;52.446;13.280;2023-10-13T09:09:15;16.90;99.90
26262;DHT22;13988;52.446;13.280;2023-10-13T09:12:00;17.00;99.90
26262;DHT22;13988;52.446;13.280;2023-10-13T09:14:39;17.00;99.90
26262;DHT22;13988;52.446;13.280;2023-10-13T09:17:12;17.10;99.90
26262;DHT22;13988;52.446;13.280;2023-10-13T09:19:53;17.00;99.90
26262;DHT22;13988;52.446;13.280;2023-10-13T09:24:59;17.00;99.90
26262;DHT22;13988;52.446;13.280;2023-10-13T09:27:27;17.00;99.90
26262;DHT22;13988;52.446;13.280;2023-10-13T09:29:57;17.00;99.90
26262;DHT22;13988;52.446;13.280;2023-10-13T09:32:23;17.00;99.90
26262;DHT22;13988;52.446;13.280;2023-10-13T09:34:49;17.00;99.90
26262;DHT22;13988;52.446;13.280;2023-10-13T09:37:16;17.00;99.90
26262;DHT22;13988;52.446;13.280;2023-10-13T09:39:46;17.00;99.90
26262;DHT22;13988;52.446;13.280;2023-10-13T09:42:17;16.90;99.90
26262;DHT22;13988;52.446;13.280;2023-10-13T09:44:44;16.90;99.90
26262;DHT22;13988;52.446;13.280;2023-10-13T09:47:21;16.90;99.90
26262;DHT22;13988;52.446;13.280;2023-10-13T09:49:59;16.90;99.90
26262;DHT22;13988;52.446;13.280;2023-10-13T09:52:30;17.00;99.90
26262;DHT22;13988;52.446;13.280;2023-10-13T09:55:03;17.00;99.90
26262;DHT22;13988;52.446;13.280;2023-10-13T09:57:37;16.90;99.90
26262;DHT22;13988;52.446;13.280;2023-10-13T10:00:17;17.00;99.90
26262;DHT22;13988;52.446;13.280;2023-10-13T10:03:13;17.10;99.90
26262;DHT22;13988;52.446;13.280;2023-10-13T10:06:01;17.30;99.90
26262;DHT22;13988;52.446;13.280;2023-10-13T10:08:41;17.40;99.90
26262;DHT22;13988;52.446;13.280;2023-10-13T10:14:10;17.50;99.90
26262;DHT22;13988;52.446;13.280;2023-10-13T10:19:26;17.50;99.90
26262;DHT22;13988;52.446;13.280;2023-10-13T10:22:03;17.40;99.90
26262;DHT22;13988;52.446;13.280;2023-10-13T10:24:56;17.40;99.90
26262;DHT22;13988;52.446;13.280;2023-10-13T10:27:28;17.40;99.90
26262;DHT22;13988;52.446;13.280;2023-10-13T10:29:55;17.40;99.90
26262;DHT22;13988;52.446;13.280;2023-10-13T10:32:21;17.40;99.90
26262;DHT22;13988;52.446;13.280;2023-10-13T10:34:47;17.30;99.90
26262;DHT22;13988;52.446;13.280;2023-10-13T10:37:13;17.30;99.90
26262;DHT22;13988;52.446;13.280;2023-10-13T10:39:38;17.30;99.90
26262;DHT22;13988;52.446;13.280;2023-10-13T10:42:15;17.30;99.90
26262;DHT22;13988;52.446;13.280;2023-10-13T10:44:41;17.30;99.90
26262;DHT22;13988;52.446;13.280;2023-10-13T10:47:14;17.30;99.90
26262;DHT22;13988;52.446;13.280;2023-10-13T10:50:02;17.30;99.90
26262;DHT22;13988;52.446;13.280;2023-10-13T10:52:45;17.40;99.90
26262;DHT22;13988;52.446;13.280;2023-10-13T10:55:12;17.40;99.90
26262;DHT22;13988;52.446;13.280;2023-10-13T10:57:40;17.40;99.90
26262;DHT22;13988;52.446;13.280;2023-10-13T11:00:21;17.40;99.90
26262;DHT22;13988;52.446;13.280;2023-10-13T11:02:57;17.40;99.90
26262;DHT22;13988;52.446;13.280;2023-10-13T11:05:25;17.50;99.90
26262;DHT22;13988;52.446;13.280;2023-10-13T11:07:58;17.50;99.90
26262;DHT22;13988;52.446;13.280;2023-10-13T11:10:23;17.60;99.90
26262;DHT22;13988;52.446;13.280;2023-10-13T11:12:57;17.60;99.90
26262;DHT22;13988;52.446;13.280;2023-10-13T11:15:44;17.60;99.90
26262;DHT22;13988;52.446;13.280;2023-10-13T11:18:10;17.70;99.90
26262;DHT22;13988;52.446;13.280;2023-10-13T11:20:42;17.70;99.90
26262;DHT22;13988;52.446;13.280;2023-10-13T11:23:12;17.70;99.90
26262;DHT22;13988;52.446;13.280;2023-10-13T11:25:38;17.70;99.90
26262;DHT22;13988;52.446;13.280;2023-10-13T11:28:17;17.80;99.90
26262;DHT22;13988;52.446;13.280;2023-10-13T11:30:44;17.80;99.90
26262;DHT22;13988;52.446;13.280;2023-10-13T11:33:15;17.80;99.90
26262;DHT22;13988;52.446;13.280;2023-10-13T11:35:44;17.80;99.90
26262;DHT22;13988;52.446;13.280;2023-10-13T11:41:01;17.80;99.90
26262;DHT22;13988;52.446;13.280;2023-10-13T11:43:41;17.80;99.90
26262;DHT22;13988;52.446;13.280;2023-10-13T11:46:30;17.90;99.90
26262;DHT22;13988;52.446;13.280;2023-10-13T11:49:05;17.90;99.90
26262;DHT22;13988;52.446;13.280;2023-10-13T11:51:45;17.90;99.90
26262;DHT22;13988;52.446;13.280;2023-10-13T11:54:17;17.90;99.90
26262;DHT22;13988;52.446;13.280;2023-10-13T11:56:47;18.00;99.90
26262;DHT22;13988;52.446;13.280;2023-10-13T11:59:14;18.10;99.90
26262;DHT22;13988;52.446;13.280;2023-10-13T12:01:50;18.20;99.90
26262;DHT22;13988;52.446;13.280;2023-10-13T12:04:36;18.20;99.90
26262;DHT22;13988;52.446;13.280;2023-10-13T12:07:08;18.30;99.90
26262;DHT22;13988;52.446;13.280;2023-10-13T12:09:41;18.30;99.90
26262;DHT22;13988;52.446;13.280;2023-10-13T12:12:17;18.30;99.90
26262;DHT22;13988;52.446;13.280;2023-10-13T12:14:43;18.40;99.90
26262;DHT22;13988;52.446;13.280;2023-10-13T12:17:22;18.40;99.90
26262;DHT22;13988;52.446;13.280;2023-10-13T12:19:54;18.60;99.90
26262;DHT22;13988;52.446;13.280;2023-10-13T12:22:20;18.60;99.90
26262;DHT22;13988;52.446;13.280;2023-10-13T12:25:01;18.70;99.90
26262;DHT22;13988;52.446;13.280;2023-10-13T12:27:31;18.70;99.90
26262;DHT22;13988;52.446;13.280;2023-10-13T12:30:11;18.80;99.90
26262;DHT22;13988;52.446;13.280;2023-10-13T12:32:40;18.90;99.90
26262;DHT22;13988;52.446;13.280;2023-10-13T12:35:10;18.90;99.90
26262;DHT22;13988;52.446;13.280;2023-10-13T12:37:36;18.90;99.90
26262;DHT22;13988;52.446;13.280;2023-10-13T12:40:05;18.90;99.90
26262;DHT22;13988;52.446;13.280;2023-10-13T12:42:50;19.00;99.90
26262;DHT22;13988;52.446;13.280;2023-10-13T12:45:45;19.00;99.90
26262;DHT22;13988;52.446;13.280;2023-10-13T12:48:30;19.10;99.90
26262;DHT22;13988;52.446;13.280;2023-10-13T12:51:14;19.20;99.90
26262;DHT22;13988;52.446;13.280;2023-10-13T12:53:50;19.20;99.90
26262;DHT22;13988;52.446;13.280;2023-10-13T12:56:17;19.40;99.90
26262;DHT22;13988;52.446;13.280;2023-10-13T12:58:43;19.40;99.90
26262;DHT22;13988;52.446;13.280;2023-10-13T13:01:20;19.40;99.90
26262;DHT22;13988;52.446;13.280;2023-10-13T13:03:50;19.50;99.90
26262;DHT22;13988;52.446;13.280;2023-10-13T13:06:17;19.60;99.90
26262;DHT22;13988;52.446;13.280;2023-10-13T13:08:44;19.70;99.90
26262;DHT22;13988;52.446;13.280;2023-10-13T13:11:10;19.80;99.90
26262;DHT22;13988;52.446;13.280;2023-10-13T13:13:37;19.90;99.90
26262;DHT22;13988;52.446;13.280;2023-10-13T13:16:03;20.00;99.90
26262;DHT22;13988;52.446;13.280;2023-10-13T13:18:33;20.00;99.90
26262;DHT22;13988;52.446;13.280;2023-10-13T13:20:59;20.10;99.90
26262;DHT22;13988;52.446;13.280;2023-10-13T13:23:27;20.30;99.90
26262;DHT22;13988;52.446;13.280;2023-10-13T13:25:53;20.70;99.90
26262;DHT22;13988;52.446;13.280;2023-10-13T13:28:19;21.00;99.90
26262;DHT22;13988;52.446;13.280;2023-10-13T13:30:44;20.90;99.90
26262;DHT22;13988;52.446;13.280;2023-10-13T13:33:16;20.70;99.90
26262;DHT22;13988;52.446;13.280;2023-10-13T13:35:42;20.50;99.90
26262;DHT22;13988;52.446;13.280;2023-10-13T13:38:14;20.40;99.90
26262;DHT22;13988;52.446;13.280;2023-10-13T13:40:48;20.50;99.90
26262;DHT22;13988;52.446;13.280;2023-10-13T13:43:22;20.60;99.90
26262;DHT22;13988;52.446;13.280;2023-10-13T13:46:21;20.60;99.90
26262;DHT22;13988;52.446;13.280;2023-10-13T13:48:51;20.60;99.90
26262;DHT22;13988;52.446;13.280;2023-10-13T13:51:24;20.50;99.90
26262;DHT22;13988;52.446;13.280;2023-10-13T13:53:55;20.60;99.90
26262;DHT22;13988;52.446;13.280;2023-10-13T13:56:20;20.80;99.90
26262;DHT22;13988;52.446;13.280;2023-10-13T13:58:48;20.80;99.90
26262;DHT22;13988;52.446;13.280;2023-10-13T14:01:14;20.90;99.90
26262;DHT22;13988;52.446;13.280;2023-10-13T14:03:51;20.80;99.90
26262;DHT22;13988;52.446;13.280;2023-10-13T14:08:57;20.90;99.90
26262;DHT22;13988;52.446;13.280;2023-10-13T14:11:30;20.90;99.90
26262;DHT22;13988;52.446;13.280;2023-10-13T14:14:12;20.90;99.90
26262;DHT22;13988;52.446;13.280;2023-10-13T14:16:51;20.80;99.90
26262;DHT22;13988;52.446;13.280;2023-10-13T14:19:17;20.70;99.90
26262;DHT22;13988;52.446;13.280;2023-10-13T14:21:59;20.70;99.90
26262;DHT22;13988;52.446;13.280;2023-10-13T14:24:31;20.70;99.90
26262;DHT22;13988;52.446;13.280;2023-10-13T14:27:02;20.80;99.90
26262;DHT22;13988;52.446;13.280;2023-10-13T14:29:38;20.90;99.90
26262;DHT22;13988;52.446;13.280;2023-10-13T14:32:12;20.90;99.90
26262;DHT22;13988;52.446;13.280;2023-10-13T14:34:43;20.90;99.90
26262;DHT22;13988;52.446;13.280;2023-10-13T14:37:09;20.90;99.90
26262;DHT22;13988;52.446;13.280;2023-10-13T14:39:41;20.80;99.90
26262;DHT22;13988;52.446;13.280;2023-10-13T14:42:07;20.70;99.90
26262;DHT22;13988;52.446;13.280;2023-10-13T14:44:33;20.70;99.90
26262;DHT22;13988;52.446;13.280;2023-10-13T14:47:00;20.60;99.90
26262;DHT22;13988;52.446;13.280;2023-10-13T14:49:26;20.60;99.90
26262;DHT22;13988;52.446;13.280;2023-10-13T14:51:52;20.60;99.90
26262;DHT22;13988;52.446;13.280;2023-10-13T14:54:21;20.60;99.90
26262;DHT22;13988;52.446;13.280;2023-10-13T14:56:59;20.50;99.90
26262;DHT22;13988;52.446;13.280;2023-10-13T14:59:24;20.50;99.90
26262;DHT22;13988;52.446;13.280;2023-10-13T15:01:50;20.60;99.90
26262;DHT22;13988;52.446;13.280;2023-10-13T15:04:16;20.60;99.90
26262;DHT22;13988;52.446;13.280;2023-10-13T15:06:41;20.60;99.90
26262;DHT22;13988;52.446;13.280;2023-10-13T15:09:09;20.60;99.90
26262;DHT22;13988;52.446;13.280;2023-10-13T15:11:37;20.40;99.90
26262;DHT22;13988;52.446;13.280;2023-10-13T15:14:03;20.50;99.90
26262;DHT22;13988;52.446;13.280;2023-10-13T15:16:29;20.40;99.90
26262;DHT22;13988;52.446;13.280;2023-10-13T15:18:55;20.40;99.90
26262;DHT22;13988;52.446;13.280;2023-10-13T15:21:26;20.40;99.90
26262;DHT22;13988;52.446;13.280;2023-10-13T15:23:56;20.40;99.90
26262;DHT22;13988;52.446;13.280;2023-10-13T15:26:27;20.40;99.90
26262;DHT22;13988;52.446;13.280;2023-10-13T15:28:53;20.30;99.90
26262;DHT22;13988;52.446;13.280;2023-10-13T15:31:21;20.40;99.90
26262;DHT22;13988;52.446;13.280;2023-10-13T15:33:59;20.30;99.90
26262;DHT22;13988;52.446;13.280;2023-10-13T15:36:26;20.30;99.90
26262;DHT22;13988;52.446;13.280;2023-10-13T15:38:53;20.30;99.90
26262;DHT22;13988;52.446;13.280;2023-10-13T15:41:26;20.20;99.90
26262;DHT22;13988;52.446;13.280;2023-10-13T15:43:52;20.20;99.90
26262;DHT22;13988;52.446;13.280;2023-10-13T15:46:20;20.30;99.90
26262;DHT22;13988;52.446;13.280;2023-10-13T15:48:51;20.10;99.90
26262;DHT22;13988;52.446;13.280;2023-10-13T15:51:19;20.10;99.90
26262;DHT22;13988;52.446;13.280;2023-10-13T15:53:45;20.10;99.90
26262;DHT22;13988;52.446;13.280;2023-10-13T15:56:13;20.00;99.90
26262;DHT22;13988;52.446;13.280;2023-10-13T15:58:48;20.00;99.90
26262;DHT22;13988;52.446;13.280;2023-10-13T16:01:15;20.10;99.90
26262;DHT22;13988;52.446;13.280;2023-10-13T16:03:45;20.10;99.90
26262;DHT22;13988;52.446;13.280;2023-10-13T16:06:18;20.00;99.90
26262;DHT22;13988;52.446;13.280;2023-10-13T16:08:44;19.90;99.90
26262;DHT22;13988;52.446;13.280;2023-10-13T16:11:14;19.90;99.90
26262;DHT22;13988;52.446;13.280;2023-10-13T16:13:49;19.80;99.90
26262;DHT22;13988;52.446;13.280;2023-10-13T16:16:19;19.90;99.90